Time;durP1;ratioP1;P1;durP2;ratioP2;P2;SDS_P1;SDS_P2;PMS_P1;PMS_P2;Temp;Humidity;BMP_temperature;BMP_pressure;BME280_temperature;BME280_humidity;BME280_pressure;Samples;Min_cycle;Max_cycle;Signal;HPM_P1;HPM_P2
2022/07/19 00:01:59;;;;;;;10.17;9.10;;;20.70;90.80;;;;;;4996659;28;20969;-75
2022/07/19 00:04:27;;;;;;;10.17;9.13;;;20.60;91.10;;;;;;5015359;28;20436;-75
2022/07/19 00:06:55;;;;;;;9.63;8.63;;;20.60;91.00;;;;;;5015116;28;20436;-75
2022/07/19 00:09:25;;;;;;;9.70;8.80;;;20.60;91.10;;;;;;4996714;28;20458;-75
2022/07/19 00:11:55;;;;;;;9.63;8.70;;;20.50;91.20;;;;;;4996665;28;20471;-75
2022/07/19 00:14:24;;;;;;;10.17;9.27;;;20.50;91.30;;;;;;4996663;28;20797;-75
2022/07/19 00:16:52;;;;;;;10.27;9.27;;;20.40;91.40;;;;;;4996492;28;20960;-75
2022/07/19 00:19:20;;;;;;;10.57;9.03;;;20.40;91.40;;;;;;5014038;28;20468;-75
2022/07/19 00:21:48;;;;;;;10.50;9.57;;;20.30;91.40;;;;;;5014254;28;20972;-75
2022/07/19 00:24:17;;;;;;;12.00;9.73;;;20.30;91.50;;;;;;5014257;28;20538;-75
2022/07/19 00:26:45;;;;;;;9.60;8.70;;;20.30;91.70;;;;;;5014233;28;20447;-75
2022/07/19 00:29:14;;;;;;;10.27;9.27;;;20.20;91.80;;;;;;5013982;28;20532;-75
2022/07/19 00:31:43;;;;;;;10.37;9.47;;;20.20;91.90;;;;;;5013973;28;20877;-75
2022/07/19 00:34:12;;;;;;;9.83;8.83;;;20.20;92.00;;;;;;4996609;28;20456;-75
2022/07/19 00:36:40;;;;;;;11.50;9.03;;;20.10;92.00;;;;;;5013844;28;20824;-75
2022/07/19 00:39:08;;;;;;;9.97;9.00;;;20.10;92.10;;;;;;4996066;28;20479;-75
2022/07/19 00:41:40;;;;;;;11.53;9.20;;;20.00;92.10;;;;;;5014103;28;20464;-75
2022/07/19 00:44:09;;;;;;;10.97;9.87;;;20.00;92.30;;;;;;5013963;28;20996;-75
2022/07/19 00:46:39;;;;;;;10.03;9.03;;;20.00;92.30;;;;;;5014014;28;20882;-75
2022/07/19 00:49:07;;;;;;;10.27;9.27;;;19.90;92.40;;;;;;5013619;28;20451;-75
2022/07/19 00:51:40;;;;;;;9.47;8.50;;;19.90;92.50;;;;;;5013568;28;20546;-75
2022/07/19 00:54:11;;;;;;;8.73;7.83;;;19.90;92.50;;;;;;5013988;28;20424;-75
2022/07/19 00:56:42;;;;;;;8.77;7.87;;;19.80;92.50;;;;;;5013687;28;20459;-75
2022/07/19 00:59:12;;;;;;;12.20;9.00;;;19.80;92.60;;;;;;4996200;28;20566;-75
2022/07/19 01:01:42;;;;;;;9.67;8.77;;;19.70;92.60;;;;;;5013916;28;20480;-75
2022/07/19 01:04:11;;;;;;;10.17;9.17;;;19.70;92.80;;;;;;4995794;28;20818;-75
2022/07/19 01:06:42;;;;;;;9.37;8.57;;;19.60;92.80;;;;;;4996159;28;20562;-75
2022/07/19 01:09:10;;;;;;;10.23;8.60;;;19.60;92.90;;;;;;4995935;28;20494;-75
2022/07/19 01:11:40;;;;;;;10.10;9.10;;;19.60;93.00;;;;;;4995725;28;20996;-75
2022/07/19 01:14:08;;;;;;;9.83;8.93;;;19.50;93.00;;;;;;5013466;28;20442;-75
2022/07/19 01:16:36;;;;;;;9.00;8.10;;;19.50;93.10;;;;;;4995974;28;20444;-75
2022/07/19 01:19:08;;;;;;;9.83;8.93;;;19.50;93.20;;;;;;5013330;28;20857;-75
2022/07/19 01:21:37;;;;;;;9.90;8.87;;;19.50;93.30;;;;;;5013591;28;20812;-75
2022/07/19 01:24:06;;;;;;;11.00;9.80;;;19.40;93.40;;;;;;5013375;28;20523;-75
2022/07/19 01:26:34;;;;;;;10.13;9.13;;;19.40;93.50;;;;;;5013581;28;20937;-75
2022/07/19 01:29:03;;;;;;;9.90;8.90;;;19.30;93.50;;;;;;4995655;28;20444;-75
2022/07/19 01:31:31;;;;;;;9.27;8.33;;;19.30;93.60;;;;;;5013416;28;20942;-75
2022/07/19 01:34:00;;;;;;;8.43;7.63;;;19.30;93.70;;;;;;4995663;28;20444;-75
2022/07/19 01:36:28;;;;;;;10.93;9.93;;;19.30;93.70;;;;;;5013508;28;20534;-75
2022/07/19 01:38:57;;;;;;;11.67;9.87;;;19.20;93.70;;;;;;5013755;28;20522;-76
2022/07/19 01:41:25;;;;;;;10.70;9.70;;;19.20;93.80;;;;;;5013225;28;20451;-76
2022/07/19 01:43:53;;;;;;;9.80;8.93;;;19.20;93.90;;;;;;5013277;28;20575;-76
2022/07/19 01:46:21;;;;;;;10.00;9.10;;;19.10;94.00;;;;;;4995611;28;20440;-75
2022/07/19 01:48:50;;;;;;;9.83;8.83;;;19.10;94.00;;;;;;5013404;28;20447;-75
2022/07/19 01:51:18;;;;;;;9.50;8.40;;;19.10;94.10;;;;;;5013303;28;20470;-75
2022/07/19 01:53:46;;;;;;;10.40;9.43;;;19.10;94.20;;;;;;4995780;28;20871;-75
2022/07/19 01:56:15;;;;;;;9.70;8.80;;;19.00;94.20;;;;;;5013054;28;20463;-75
2022/07/19 01:58:43;;;;;;;10.07;9.10;;;19.00;94.30;;;;;;4995328;28;20567;-75
2022/07/19 02:01:11;;;;;;;10.37;9.33;;;19.00;94.40;;;;;;4995363;28;20459;-75
2022/07/19 02:03:40;;;;;;;10.77;9.77;;;18.90;94.50;;;;;;4995448;28;20448;-75
2022/07/19 02:06:09;;;;;;;10.40;8.90;;;18.90;94.60;;;;;;4995390;28;20451;-75
2022/07/19 02:08:37;;;;;;;10.07;9.10;;;18.90;94.90;;;;;;5012915;28;20440;-75
2022/07/19 02:13:49;;;;;;;9.63;8.77;;;18.80;94.70;;;;;;4994559;28;20448;-75
2022/07/19 02:16:17;;;;;;;9.90;8.90;;;18.80;94.70;;;;;;5014087;28;20439;-75
2022/07/19 02:18:45;;;;;;;9.90;8.90;;;18.80;94.80;;;;;;5016245;28;21050;-75
2022/07/19 02:21:14;;;;;;;10.20;9.30;;;18.70;94.80;;;;;;4998826;28;20438;-75
2022/07/19 02:23:42;;;;;;;9.30;8.40;;;18.70;94.90;;;;;;5016558;28;20459;-75
2022/07/19 02:26:10;;;;;;;10.40;9.40;;;18.70;95.00;;;;;;5016513;28;20928;-75
2022/07/19 02:28:38;;;;;;;10.30;9.30;;;18.70;95.10;;;;;;5016223;28;20526;-75
2022/07/19 02:31:08;;;;;;;9.37;8.50;;;18.60;95.10;;;;;;4998461;28;20521;-75
2022/07/19 02:33:36;;;;;;;9.23;8.27;;;18.60;95.20;;;;;;5016342;28;20440;-75
2022/07/19 02:36:04;;;;;;;10.23;9.33;;;18.60;95.20;;;;;;5016571;28;20428;-75
2022/07/19 02:38:33;;;;;;;10.70;9.60;;;18.50;95.30;;;;;;4998926;28;20506;-75
2022/07/19 02:41:01;;;;;;;10.40;9.30;;;18.50;95.40;;;;;;5017133;28;20942;-75
2022/07/19 02:43:30;;;;;;;10.20;9.20;;;18.50;95.40;;;;;;5017500;28;20867;-75
2022/07/19 02:45:58;;;;;;;9.50;8.60;;;18.50;95.50;;;;;;4999229;28;20551;-76
2022/07/19 02:48:28;;;;;;;10.77;9.20;;;18.40;95.60;;;;;;5016366;28;20967;-75
2022/07/19 02:50:56;;;;;;;11.00;10.00;;;18.40;95.70;;;;;;4998774;28;20448;-75
2022/07/19 02:53:24;;;;;;;9.80;8.80;;;18.40;95.80;;;;;;5015672;28;20440;-75
2022/07/19 02:55:53;;;;;;;10.03;9.13;;;18.40;95.80;;;;;;5015856;28;20436;-75
2022/07/19 02:58:21;;;;;;;10.20;9.30;;;18.30;95.80;;;;;;5015598;28;20510;-76
2022/07/19 03:00:49;;;;;;;9.80;8.90;;;18.30;95.90;;;;;;5015448;28;20472;-75
2022/07/19 03:06:20;;;;;;;10.50;9.40;;;18.30;96.00;;;;;;4939097;29;20439;-75
2022/07/19 03:08:49;;;;;;;9.57;8.77;;;18.20;96.10;;;;;;4955197;29;20431;-75
2022/07/19 03:11:17;;;;;;;11.17;8.63;;;18.20;96.10;;;;;;4983297;28;20831;-75
2022/07/19 03:13:45;;;;;;;12.70;9.13;;;18.20;96.20;;;;;;5015375;28;21015;-75
2022/07/19 03:16:13;;;;;;;9.77;8.43;;;18.20;96.30;;;;;;4997832;28;20455;-75
2022/07/19 03:18:41;;;;;;;10.10;9.10;;;18.10;96.30;;;;;;4997508;28;20571;-75
2022/07/19 03:21:10;;;;;;;10.57;9.57;;;18.10;96.40;;;;;;4997570;28;20499;-76
2022/07/19 03:23:39;;;;;;;9.53;8.63;;;18.10;96.40;;;;;;5015692;28;20439;-75
2022/07/19 03:26:07;;;;;;;9.47;8.47;;;18.10;96.50;;;;;;4998403;28;20452;-75
2022/07/19 03:28:36;;;;;;;10.07;9.07;;;18.10;96.60;;;;;;5014990;28;20937;-75
2022/07/19 03:31:04;;;;;;;10.10;9.03;;;18.00;96.60;;;;;;5015081;28;20454;-75
2022/07/19 03:33:32;;;;;;;10.60;9.60;;;18.00;96.70;;;;;;4997565;28;20864;-76
2022/07/19 03:36:00;;;;;;;14.97;13.47;;;18.00;96.70;;;;;;5014982;28;20444;-75
2022/07/19 03:38:29;;;;;;;29.97;26.67;;;18.00;96.80;;;;;;4997286;28;20466;-75
2022/07/19 03:40:58;;;;;;;22.60;18.07;;;18.00;96.90;;;;;;4997431;28;20514;-75
2022/07/19 03:43:26;;;;;;;21.60;19.33;;;18.00;97.00;;;;;;5014733;28;20440;-75
2022/07/19 03:45:54;;;;;;;19.67;17.77;;;17.90;97.10;;;;;;5014769;28;20443;-75
2022/07/19 03:48:22;;;;;;;16.80;15.20;;;17.90;97.20;;;;;;5014721;28;20536;-75
2022/07/19 03:50:51;;;;;;;23.57;18.30;;;17.90;97.30;;;;;;5015130;28;20444;-75
2022/07/19 03:53:19;;;;;;;37.70;33.60;;;17.90;97.30;;;;;;5014925;28;20444;-75
2022/07/19 03:55:47;;;;;;;41.37;36.67;;;17.90;97.40;;;;;;5014962;28;20530;-75
2022/07/19 03:58:17;;;;;;;35.63;31.57;;;17.90;97.50;;;;;;4997233;28;20794;-75
2022/07/19 04:00:45;;;;;;;43.90;37.60;;;17.80;97.60;;;;;;5014345;28;20494;-75
2022/07/19 04:03:13;;;;;;;51.67;43.37;;;17.80;97.60;;;;;;5014972;28;20920;-75
2022/07/19 04:05:42;;;;;;;32.60;26.87;;;17.80;97.70;;;;;;5014476;28;20443;-75
2022/07/19 04:08:10;;;;;;;21.57;19.27;;;17.80;97.70;;;;;;5014384;28;20444;-75
2022/07/19 04:10:38;;;;;;;22.73;16.00;;;17.80;97.80;;;;;;4996733;28;20448;-75
2022/07/19 04:13:06;;;;;;;20.17;16.47;;;17.80;97.90;;;;;;5014334;28;20454;-75
2022/07/19 04:15:36;;;;;;;13.97;12.47;;;17.80;97.90;;;;;;5014224;28;20922;-75
2022/07/19 04:18:12;;;;;;;14.83;12.20;;;17.80;98.00;;;;;;5014503;28;20432;-75
2022/07/19 04:20:40;;;;;;;14.60;12.63;;;17.80;98.10;;;;;;4996512;28;20547;-75
2022/07/19 04:23:08;;;;;;;15.77;10.90;;;17.80;98.30;;;;;;4996422;28;20920;-75
2022/07/19 04:25:37;;;;;;;14.23;11.03;;;17.80;98.40;;;;;;5014100;28;20440;-75
2022/07/19 04:28:05;;;;;;;12.83;10.83;;;17.80;98.50;;;;;;5013983;28;20452;-75
2022/07/19 04:30:33;;;;;;;11.77;10.03;;;17.80;98.60;;;;;;5013876;28;20436;-75
2022/07/19 04:33:03;;;;;;;14.80;10.50;;;17.80;99.00;;;;;;5013895;28;21083;-75
2022/07/19 04:35:31;;;;;;;12.03;10.93;;;17.80;98.80;;;;;;5013989;28;21016;-75
2022/07/19 04:38:00;;;;;;;15.07;13.47;;;17.80;98.90;;;;;;5013934;28;20435;-75
2022/07/19 04:40:28;;;;;;;16.03;14.43;;;17.90;99.00;;;;;;4995761;28;20558;-75
2022/07/19 04:42:56;;;;;;;39.10;31.07;;;17.90;99.00;;;;;;5014009;28;20819;-75
2022/07/19 04:45:24;;;;;;;32.20;26.80;;;17.90;99.10;;;;;;4996068;28;20547;-76
2022/07/19 04:47:52;;;;;;;25.50;21.73;;;17.90;99.20;;;;;;5013855;28;20482;-76
2022/07/19 04:50:22;;;;;;;17.07;15.37;;;17.90;99.20;;;;;;5013800;28;20802;-76
2022/07/19 04:52:50;;;;;;;16.87;14.97;;;18.00;99.40;;;;;;4996065;28;20495;-75
2022/07/19 04:55:18;;;;;;;14.20;12.73;;;18.00;99.40;;;;;;4996024;28;20498;-75
2022/07/19 04:57:47;;;;;;;14.57;13.10;;;18.00;99.60;;;;;;5013879;28;20490;-75
2022/07/19 05:00:15;;;;;;;14.33;12.83;;;18.00;99.60;;;;;;5013745;28;21000;-72
2022/07/19 05:02:43;;;;;;;15.97;12.27;;;18.10;99.70;;;;;;4995919;28;20475;-73
2022/07/19 05:05:12;;;;;;;13.30;11.97;;;18.10;99.80;;;;;;5013870;28;20444;-72
2022/07/19 05:07:41;;;;;;;17.17;15.37;;;18.10;99.90;;;;;;5013525;28;20463;-72
2022/07/19 05:10:11;;;;;;;15.70;14.13;;;18.20;99.90;;;;;;5013442;28;20471;-73
2022/07/19 05:12:40;;;;;;;14.80;12.63;;;18.20;99.90;;;;;;5013632;28;20506;-72
2022/07/19 05:15:09;;;;;;;13.53;11.50;;;18.30;99.90;;;;;;5013530;28;20436;-73
2022/07/19 05:17:43;;;;;;;12.00;10.67;;;18.30;99.90;;;;;;5014020;28;20775;-72
2022/07/19 05:20:13;;;;;;;12.13;10.90;;;18.40;99.90;;;;;;4995752;28;20468;-72
2022/07/19 05:22:43;;;;;;;11.80;10.60;;;18.40;99.90;;;;;;5013612;28;20463;-73
2022/07/19 05:25:15;;;;;;;11.93;10.73;;;18.50;99.90;;;;;;5013658;28;20428;-73
2022/07/19 05:27:44;;;;;;;11.90;10.70;;;18.50;99.90;;;;;;5013336;28;20440;-72
2022/07/19 05:30:13;;;;;;;10.77;9.53;;;18.60;99.90;;;;;;4995732;28;20487;-72
2022/07/19 05:32:41;;;;;;;11.73;10.10;;;18.70;99.90;;;;;;5013214;28;20539;-73
2022/07/19 05:35:10;;;;;;;10.70;9.60;;;18.70;99.90;;;;;;5013216;28;21025;-73
2022/07/19 05:37:38;;;;;;;12.10;9.67;;;18.80;99.90;;;;;;4995610;28;20860;-73
2022/07/19 05:40:09;;;;;;;10.30;8.70;;;18.90;99.90;;;;;;5013125;28;20870;-73
2022/07/19 05:42:37;;;;;;;10.40;9.30;;;18.90;99.90;;;;;;4995556;28;20476;-73
2022/07/19 05:45:05;;;;;;;9.43;8.40;;;19.00;99.90;;;;;;5012989;28;20542;-74
2022/07/19 05:47:34;;;;;;;9.43;8.47;;;19.10;99.90;;;;;;5013131;28;20444;-74
2022/07/19 05:50:03;;;;;;;10.17;9.17;;;19.20;99.90;;;;;;5013994;28;20439;-73
2022/07/19 05:52:31;;;;;;;9.47;8.43;;;19.30;99.90;;;;;;5016749;28;20525;-74
2022/07/19 05:55:07;;;;;;;8.50;7.70;;;19.40;99.90;;;;;;4999221;28;20494;-73
2022/07/19 05:57:35;;;;;;;9.60;7.97;;;19.60;99.90;;;;;;4999091;28;20506;-74
2022/07/19 06:00:05;;;;;;;11.50;8.47;;;19.70;99.90;;;;;;4998977;28;20454;-75
2022/07/19 06:02:38;;;;;;;11.50;9.20;;;19.90;99.90;;;;;;5016930;28;20455;-72
2022/07/19 06:05:07;;;;;;;10.70;8.70;;;20.10;99.90;;;;;;4998872;28;21051;-74
2022/07/19 06:07:36;;;;;;;9.67;8.77;;;20.30;99.90;;;;;;4998934;28;20891;-73
2022/07/19 06:10:05;;;;;;;8.67;7.87;;;20.60;99.90;;;;;;5016526;28;20473;-74
2022/07/19 06:12:35;;;;;;;7.90;7.10;;;21.00;99.90;;;;;;5016659;28;20452;-74
2022/07/19 06:15:03;;;;;;;10.23;7.93;;;21.20;99.90;;;;;;4998757;28;21003;-74
2022/07/19 06:17:32;;;;;;;10.80;7.30;;;21.50;99.90;;;;;;5016581;28;20436;-74
2022/07/19 06:20:01;;;;;;;9.60;7.43;;;21.90;99.90;;;;;;4998746;28;20459;-74
2022/07/19 06:22:31;;;;;;;10.00;7.27;;;22.10;99.90;;;;;;5016137;28;20511;-74
2022/07/19 06:24:59;;;;;;;8.10;7.30;;;22.50;99.90;;;;;;5016316;28;20471;-74
2022/07/19 06:27:27;;;;;;;7.73;7.13;;;22.80;99.90;;;;;;5016475;28;20444;-73
2022/07/19 06:29:57;;;;;;;8.90;7.13;;;23.10;99.90;;;;;;4998656;28;20452;-74
2022/07/19 06:32:25;;;;;;;8.07;7.30;;;23.40;99.90;;;;;;4999011;28;20475;-74
2022/07/19 06:34:53;;;;;;;7.40;6.70;;;23.70;99.90;;;;;;5016104;28;20436;-74
2022/07/19 06:37:21;;;;;;;7.03;6.33;;;24.00;99.60;;;;;;4998481;28;20448;-74
2022/07/19 06:39:49;;;;;;;8.93;7.07;;;24.20;99.30;;;;;;5016360;28;20761;-73
2022/07/19 06:42:17;;;;;;;10.80;5.90;;;24.50;99.10;;;;;;4998189;28;20486;-74
2022/07/19 06:44:45;;;;;;;7.77;6.27;;;24.70;98.80;;;;;;5015829;28;20928;-74
2022/07/19 06:47:15;;;;;;;6.90;6.20;;;25.00;98.50;;;;;;5015826;28;20432;-74
2022/07/19 06:49:44;;;;;;;7.30;6.60;;;25.20;98.20;;;;;;5016375;28;20440;-74
2022/07/19 06:52:12;;;;;;;7.27;6.30;;;25.40;97.80;;;;;;5015855;28;21024;-74
2022/07/19 06:54:41;;;;;;;9.33;6.70;;;25.70;97.60;;;;;;5015745;28;20515;-75
2022/07/19 06:57:10;;;;;;;10.10;6.37;;;25.80;97.20;;;;;;5015643;28;20528;-75
2022/07/19 06:59:38;;;;;;;7.00;6.30;;;26.00;97.00;;;;;;5015888;28;20436;-74
2022/07/19 07:02:06;;;;;;;6.53;5.83;;;26.10;96.70;;;;;;5014763;28;20479;-74
2022/07/19 07:04:36;;;;;;;8.13;6.33;;;26.20;96.40;;;;;;5015599;28;20444;-74
2022/07/19 07:07:13;;;;;;;6.40;5.70;;;26.30;96.20;;;;;;5015903;28;20431;-74
2022/07/19 07:09:41;;;;;;;8.97;6.60;;;26.50;96.00;;;;;;5015927;28;20449;-75
2022/07/19 07:12:10;;;;;;;6.63;6.03;;;26.60;95.60;;;;;;4997804;28;21019;-75
2022/07/19 07:14:38;;;;;;;7.37;5.97;;;26.90;95.30;;;;;;5015350;28;20442;-75
2022/07/19 07:17:06;;;;;;;6.07;5.40;;;27.00;95.00;;;;;;4997849;28;20861;-75
2022/07/19 07:19:36;;;;;;;7.83;5.93;;;27.20;94.70;;;;;;5015821;28;20510;-75
2022/07/19 07:22:05;;;;;;;7.17;5.97;;;27.40;94.40;;;;;;4997779;28;20476;-74
2022/07/19 07:24:33;;;;;;;7.40;6.70;;;27.60;94.30;;;;;;4998360;28;20937;-75
2022/07/19 07:27:01;;;;;;;6.60;6.00;;;27.80;94.20;;;;;;5017323;28;20523;-74
2022/07/19 07:29:30;;;;;;;8.30;6.47;;;28.00;94.00;;;;;;5016839;28;20440;-74
2022/07/19 07:31:59;;;;;;;7.60;6.47;;;28.20;93.80;;;;;;4997445;28;20476;-75
2022/07/19 07:34:28;;;;;;;6.97;6.27;;;28.40;93.60;;;;;;5015030;28;20490;-74
2022/07/19 07:37:05;;;;;;;7.13;6.20;;;28.50;93.20;;;;;;5015238;28;20885;-74
2022/07/19 07:39:33;;;;;;;7.57;5.83;;;28.80;93.00;;;;;;4997398;28;20444;-74
2022/07/19 07:42:03;;;;;;;6.30;5.70;;;28.90;92.70;;;;;;5014764;28;20475;-74
2022/07/19 07:44:39;;;;;;;7.57;5.50;;;29.10;92.40;;;;;;5014705;28;20451;-74
2022/07/19 07:47:08;;;;;;;6.20;5.13;;;29.20;92.10;;;;;;4997089;28;20522;-75
2022/07/19 07:49:37;;;;;;;7.70;6.00;;;29.40;91.90;;;;;;5014680;28;20531;-74
2022/07/19 07:52:07;;;;;;;5.87;5.20;;;29.50;91.70;;;;;;4997060;28;20468;-74
2022/07/19 07:54:36;;;;;;;5.87;5.20;;;29.70;91.50;;;;;;5014763;28;20443;-74
2022/07/19 07:57:15;;;;;;;8.10;5.47;;;29.80;91.70;;;;;;4997067;28;20462;-74
2022/07/19 07:59:43;;;;;;;8.23;5.70;;;30.00;91.30;;;;;;5014537;28;20507;-74
2022/07/19 08:02:12;;;;;;;7.30;5.30;;;30.10;91.00;;;;;;5014347;28;20471;-74
2022/07/19 08:04:41;;;;;;;6.77;5.90;;;30.20;90.70;;;;;;4996775;28;20995;-74
2022/07/19 08:07:10;;;;;;;6.77;5.40;;;30.40;90.40;;;;;;5014487;28;20467;-74
2022/07/19 08:09:38;;;;;;;7.00;5.23;;;30.50;90.20;;;;;;5014647;28;21028;-74
2022/07/19 08:12:07;;;;;;;6.53;5.47;;;30.60;90.10;;;;;;5014252;28;20518;-74
2022/07/19 08:14:35;;;;;;;11.37;6.10;;;30.70;88.70;;;;;;4996109;28;20440;-74
2022/07/19 08:17:03;;;;;;;5.60;4.90;;;30.80;88.60;;;;;;5014231;28;20458;-74
2022/07/19 08:19:32;;;;;;;5.37;4.90;;;30.90;89.00;;;;;;5014199;28;20435;-74
2022/07/19 08:22:00;;;;;;;6.60;5.53;;;31.10;88.80;;;;;;5013912;28;20597;-74
2022/07/19 08:24:29;;;;;;;5.27;4.77;;;31.20;87.80;;;;;;4996579;28;20487;-74
2022/07/19 08:26:58;;;;;;;8.27;5.03;;;31.30;87.10;;;;;;4996430;28;20461;-74
2022/07/19 08:29:26;;;;;;;5.57;4.57;;;31.30;86.50;;;;;;4996525;28;20448;-75
2022/07/19 08:31:54;;;;;;;7.97;5.20;;;31.40;85.80;;;;;;5014274;28;20465;-74
2022/07/19 08:34:22;;;;;;;9.03;5.27;;;31.40;85.60;;;;;;5014399;28;20520;-74
2022/07/19 08:36:50;;;;;;;4.87;3.97;;;31.50;85.30;;;;;;5014028;28;20468;-74
2022/07/19 08:39:19;;;;;;;4.50;4.00;;;31.60;84.10;;;;;;4996263;28;20502;-74
2022/07/19 08:41:49;;;;;;;5.20;3.90;;;31.70;83.80;;;;;;5014332;28;20470;-73
2022/07/19 08:44:18;;;;;;;6.17;4.20;;;31.80;83.50;;;;;;4996128;28;20448;-75
2022/07/19 08:46:47;;;;;;;6.53;4.40;;;31.80;83.00;;;;;;5014161;28;20443;-74
2022/07/19 08:49:16;;;;;;;8.17;4.20;;;31.90;82.70;;;;;;4996382;28;20451;-74
2022/07/19 08:51:45;;;;;;;4.73;3.90;;;32.00;83.20;;;;;;5014056;28;20992;-76
2022/07/19 08:54:13;;;;;;;6.20;4.00;;;32.00;82.30;;;;;;4996101;28;20586;-76
2022/07/19 08:59:30;;;;;;;4.93;4.20;;;32.20;80.60;;;;;;5013726;28;20428;-76
2022/07/19 09:01:59;;;;;;;6.27;4.60;;;32.30;79.50;;;;;;5013600;28;20463;-76
2022/07/19 09:04:28;;;;;;;4.80;3.30;;;32.30;79.20;;;;;;5013636;28;20518;-75
2022/07/19 09:06:58;;;;;;;5.50;3.63;;;32.40;78.90;;;;;;4996005;28;20480;-76
2022/07/19 09:09:28;;;;;;;4.90;4.40;;;32.50;78.90;;;;;;4996105;28;20447;-76
2022/07/19 09:11:57;;;;;;;4.13;3.73;;;32.60;78.90;;;;;;4995949;28;20522;-76
2022/07/19 09:14:29;;;;;;;4.33;3.87;;;32.70;78.20;;;;;;5013531;28;20446;-75
2022/07/19 09:17:04;;;;;;;5.03;3.87;;;32.70;77.10;;;;;;4996118;28;20521;-75
2022/07/19 09:19:38;;;;;;;4.00;3.60;;;32.80;76.60;;;;;;5013808;28;20428;-76
2022/07/19 09:22:08;;;;;;;4.60;3.90;;;32.90;76.40;;;;;;5013296;28;20547;-76
2022/07/19 09:24:38;;;;;;;4.73;3.17;;;32.90;75.80;;;;;;5013945;28;20937;-76
2022/07/19 09:27:08;;;;;;;3.53;3.23;;;33.00;75.50;;;;;;5017988;28;20420;-77
2022/07/19 09:29:40;;;;;;;3.50;3.20;;;33.10;74.20;;;;;;4999718;28;20451;-77
2022/07/19 09:32:10;;;;;;;4.13;3.23;;;33.10;73.40;;;;;;4999675;28;20559;-77
2022/07/19 09:34:40;;;;;;;7.07;3.40;;;33.20;73.50;;;;;;4999911;28;20455;-77
2022/07/19 09:37:14;;;;;;;3.80;3.40;;;33.20;73.00;;;;;;4999604;28;20463;-77
2022/07/19 09:39:45;;;;;;;4.17;2.70;;;33.30;71.80;;;;;;4999646;28;20929;-77
2022/07/19 09:42:15;;;;;;;4.03;2.60;;;33.30;70.80;;;;;;5017585;28;20507;-78
2022/07/19 09:44:46;;;;;;;3.33;3.00;;;33.40;70.40;;;;;;5017016;28;20479;-77
2022/07/19 09:47:14;;;;;;;4.70;2.63;;;33.40;69.60;;;;;;5017048;28;20455;-77
2022/07/19 09:49:43;;;;;;;5.80;2.80;;;33.50;69.20;;;;;;4999441;28;20841;-77
2022/07/19 09:52:12;;;;;;;3.33;3.07;;;33.50;68.40;;;;;;5016945;28;20515;-76
2022/07/19 09:54:41;;;;;;;7.20;3.33;;;33.60;68.40;;;;;;5017059;28;20957;-77
2022/07/19 09:57:10;;;;;;;3.03;2.70;;;33.60;68.80;;;;;;5016992;28;20442;-77
2022/07/19 09:59:48;;;;;;;2.87;2.67;;;33.70;68.30;;;;;;5017060;28;20443;-77
2022/07/19 10:02:19;;;;;;;4.53;2.90;;;33.80;68.20;;;;;;4999313;28;20479;-77
2022/07/19 10:04:48;;;;;;;4.10;2.67;;;33.80;67.00;;;;;;5016739;28;20507;-77
2022/07/19 10:07:18;;;;;;;5.10;2.80;;;33.80;66.00;;;;;;4999250;28;20447;-78
2022/07/19 10:09:46;;;;;;;3.87;3.40;;;33.90;66.40;;;;;;4999482;28;20456;-77
2022/07/19 10:12:14;;;;;;;3.70;2.47;;;33.90;66.00;;;;;;5016676;28;20964;-77
2022/07/19 10:14:43;;;;;;;3.13;2.80;;;34.00;65.50;;;;;;5016894;28;20467;-77
2022/07/19 10:17:29;;;;;;;2.73;2.53;;;34.00;65.00;;;;;;4999780;28;20455;-77
2022/07/19 10:19:59;;;;;;;5.57;3.10;;;34.10;64.60;;;;;;4999157;28;20443;-77
2022/07/19 10:22:28;;;;;;;5.90;2.90;;;34.10;64.40;;;;;;5016742;28;20467;-77
2022/07/19 10:24:58;;;;;;;4.50;2.70;;;34.20;63.90;;;;;;4998870;28;20547;-77
2022/07/19 10:27:39;;;;;;;3.30;3.00;;;34.20;63.40;;;;;;5017030;28;20455;-77
2022/07/19 10:30:26;;;;;;;4.40;3.77;;;34.30;63.20;;;;;;5016346;28;20511;-78
2022/07/19 10:32:57;;;;;;;4.60;3.23;;;34.30;62.80;;;;;;4999000;28;20510;-77
2022/07/19 10:35:30;;;;;;;3.47;2.80;;;34.30;62.60;;;;;;5017528;28;20428;-78
2022/07/19 10:38:10;;;;;;;3.80;2.83;;;34.40;62.50;;;;;;5015925;28;20440;-77
2022/07/19 10:40:41;;;;;;;5.43;2.80;;;34.40;62.00;;;;;;4998477;28;20531;-77
2022/07/19 10:43:11;;;;;;;3.20;2.90;;;34.50;62.20;;;;;;5015904;28;20506;-77
2022/07/19 10:45:40;;;;;;;2.67;2.37;;;34.50;61.30;;;;;;5016244;28;20448;-78
2022/07/19 10:48:15;;;;;;;4.00;3.13;;;34.50;61.30;;;;;;5015892;28;20543;-77
2022/07/19 10:50:58;;;;;;;2.93;2.70;;;34.60;60.90;;;;;;4998467;28;20471;-77
2022/07/19 10:53:55;;;;;;;3.13;2.70;;;34.60;60.30;;;;;;4998181;28;20527;-77
2022/07/19 10:56:29;;;;;;;3.30;2.57;;;34.60;60.00;;;;;;5003164;28;20466;-77
2022/07/19 10:58:59;;;;;;;3.73;2.70;;;34.70;59.70;;;;;;4998114;28;20856;-77
2022/07/19 11:01:30;;;;;;;3.60;3.30;;;34.70;59.50;;;;;;4998051;28;21072;-77
2022/07/19 11:04:28;;;;;;;4.33;2.30;;;34.70;59.60;;;;;;5015856;28;20448;-77
2022/07/19 11:07:19;;;;;;;3.20;2.33;;;34.80;59.20;;;;;;5015699;28;20424;-78
2022/07/19 11:09:56;;;;;;;3.40;2.40;;;34.80;58.10;;;;;;4997929;28;20480;-77
2022/07/19 11:12:30;;;;;;;12.23;3.23;;;34.80;58.20;;;;;;4997879;28;20514;-77
2022/07/19 11:15:01;;;;;;;2.90;2.37;;;34.80;58.30;;;;;;5015547;28;20425;-77
2022/07/19 11:17:52;;;;;;;4.30;2.50;;;34.90;58.30;;;;;;4998145;28;20913;-77
2022/07/19 11:20:24;;;;;;;3.40;2.63;;;34.90;57.40;;;;;;5015740;28;20451;-77
2022/07/19 11:22:54;;;;;;;3.33;2.60;;;34.90;57.20;;;;;;4997672;28;20474;-77
2022/07/19 11:25:28;;;;;;;3.70;3.23;;;34.90;57.00;;;;;;4997666;28;20948;-77
2022/07/19 11:27:58;;;;;;;5.50;2.67;;;34.90;56.80;;;;;;5015121;28;20959;-77
2022/07/19 11:30:28;;;;;;;2.87;2.67;;;34.90;56.60;;;;;;4997618;28;20436;-77
2022/07/19 11:32:58;;;;;;;3.20;2.90;;;34.90;56.60;;;;;;4997849;28;20555;-77
2022/07/19 11:35:30;;;;;;;3.37;2.97;;;35.00;57.30;;;;;;5015402;28;20925;-77
2022/07/19 11:38:00;;;;;;;5.60;2.53;;;35.00;56.60;;;;;;5015162;28;20424;-77
2022/07/19 11:40:35;;;;;;;2.87;2.67;;;35.10;56.40;;;;;;5015641;28;20443;-77
2022/07/19 11:43:06;;;;;;;3.70;2.20;;;35.10;55.70;;;;;;5016839;28;20459;-77
2022/07/19 11:45:47;;;;;;;4.10;2.57;;;35.10;55.50;;;;;;4998913;28;21031;-77
2022/07/19 11:48:25;;;;;;;5.03;2.40;;;35.10;56.00;;;;;;4997763;28;20539;-76
2022/07/19 11:51:10;;;;;;;3.47;2.40;;;35.20;55.80;;;;;;5014985;28;20428;-77
2022/07/19 11:53:40;;;;;;;4.33;2.43;;;35.20;55.60;;;;;;4997204;28;20439;-76
2022/07/19 11:56:18;;;;;;;4.10;2.57;;;35.20;55.40;;;;;;5014899;28;20439;-77
2022/07/19 11:58:47;;;;;;;6.93;2.30;;;35.20;54.90;;;;;;5014984;28;20475;-77
2022/07/19 12:01:23;;;;;;;2.73;2.53;;;35.30;54.50;;;;;;4996716;28;20989;-77
2022/07/19 12:03:56;;;;;;;4.40;2.87;;;35.30;54.00;;;;;;4996890;28;21051;-77
2022/07/19 12:06:38;;;;;;;3.33;3.03;;;35.30;53.50;;;;;;5014749;28;20432;-77
2022/07/19 12:09:07;;;;;;;3.73;3.07;;;35.30;53.50;;;;;;5014744;28;20516;-77
2022/07/19 12:11:41;;;;;;;4.17;3.53;;;35.30;53.20;;;;;;4996884;28;20471;-77
2022/07/19 12:14:20;;;;;;;4.50;4.00;;;35.40;53.70;;;;;;5014684;28;20431;-76
2022/07/19 12:16:49;;;;;;;3.20;2.80;;;35.40;53.30;;;;;;5014561;28;20461;-76
2022/07/19 12:19:19;;;;;;;3.77;2.93;;;35.40;53.50;;;;;;5014474;28;20535;-76
2022/07/19 12:21:49;;;;;;;3.20;2.87;;;35.40;53.70;;;;;;4996552;28;20470;-76
2022/07/19 12:24:22;;;;;;;3.47;2.83;;;35.50;54.40;;;;;;4996541;28;20562;-76
2022/07/19 12:26:57;;;;;;;4.23;2.67;;;35.40;53.60;;;;;;4996430;28;21004;-76
2022/07/19 12:29:27;;;;;;;7.87;3.10;;;35.50;53.60;;;;;;4996888;28;20844;-76
2022/07/19 12:31:58;;;;;;;4.63;3.13;;;35.50;53.60;;;;;;5014164;28;20482;-76
2022/07/19 12:34:27;;;;;;;4.10;2.53;;;35.50;53.40;;;;;;5014314;28;20479;-76
2022/07/19 12:36:57;;;;;;;5.50;3.10;;;35.50;52.90;;;;;;5013940;28;20440;-76
2022/07/19 12:39:29;;;;;;;3.43;2.57;;;35.50;52.50;;;;;;4996808;28;20539;-76
2022/07/19 12:42:07;;;;;;;4.90;3.60;;;35.50;52.00;;;;;;4996334;28;20533;-76
2022/07/19 12:44:35;;;;;;;4.73;3.20;;;35.50;52.00;;;;;;4996377;28;20490;-76
2022/07/19 12:47:04;;;;;;;4.30;3.07;;;35.60;51.80;;;;;;5013785;28;20431;-76
2022/07/19 12:49:52;;;;;;;3.87;3.33;;;35.60;51.40;;;;;;5013756;28;20971;-76
2022/07/19 12:52:37;;;;;;;3.87;3.57;;;35.60;51.30;;;;;;5013664;28;21010;-76
2022/07/19 12:55:07;;;;;;;3.33;3.03;;;35.60;51.20;;;;;;5013660;28;20468;-76
2022/07/19 12:57:39;;;;;;;4.17;3.00;;;35.70;51.40;;;;;;4996014;28;20470;-76
2022/07/19 13:00:08;;;;;;;3.90;2.77;;;35.70;51.70;;;;;;5013171;28;20959;-76
2022/07/19 13:02:37;;;;;;;5.93;3.60;;;35.70;52.10;;;;;;5013557;28;20463;-76
2022/07/19 13:05:05;;;;;;;4.00;3.40;;;35.70;51.20;;;;;;5013559;28;20554;-76